Fryburg, Pennsylvania
Current Conditions -  °F | °C
As of 7:55 AM on Saturday 25 Oct 2014 (Local Time) from KFKL Reporting Station
Few Clouds Few Clouds  
Wind Chill: 39°   Ceiling: Unl
Heat Index: 45°   Visibility: 10mi
Dew Point: 36°   Wind: 10mph
Humidity: 71%   Direction: 210°SSW
Pressure: 29.93"   Gusts: NA
Location:  41.35°N, 79.44°W
Report Text: KFKL 251155Z 21009KT 10SM FEW027 FEW044 07/02 A2993 RMK AO1 10080 20050 57003
Loading
Personal Weather Stations






























Interactive Weather Map
Tropical Storm Tracking
New forecast layout! Learn more

10-Day Weather Forecast

Advertisements
Track Severe Weather on mobile